createdAt,value
2022-08-30T03:17:03.118Z,87.98
2022-08-30T03:20:13.876Z,88.10
2022-08-30T03:23:24.453Z,88.06
2022-08-30T03:26:34.275Z,87.50
2022-08-30T03:29:43.876Z,88.17
2022-08-30T03:32:54.699Z,87.96
2022-08-30T03:36:05.439Z,87.63
2022-08-30T03:39:15.006Z,88.49
2022-08-30T03:42:25.095Z,88.73
2022-08-30T03:45:35.000Z,88.18
2022-08-30T03:48:45.938Z,88.12
2022-08-30T03:51:55.521Z,88.54
2022-08-30T03:55:05.626Z,88.94
2022-08-30T03:58:15.171Z,89.42
2022-08-30T04:01:28.862Z,89.92
2022-08-30T04:04:39.823Z,89.12
2022-08-30T04:07:49.822Z,88.79
2022-08-30T04:11:00.070Z,89.08
2022-08-30T04:14:09.834Z,89.46
2022-08-30T04:17:20.239Z,89.88
2022-08-30T04:20:31.111Z,90.41
2022-08-30T04:23:40.750Z,90.84
2022-08-30T04:26:50.323Z,91.23
2022-08-30T04:30:00.224Z,91.23
2022-08-30T04:33:10.002Z,91.15
2022-08-30T04:36:23.473Z,91.56
2022-08-30T17:08:26.068Z,39.02
2022-08-30T17:11:38.257Z,39.73
2022-08-30T17:14:50.125Z,38.80
2022-08-30T17:17:59.978Z,38.73
2022-08-30T17:21:11.273Z,38.83
2022-08-30T17:24:23.523Z,39.90
2022-08-30T17:27:34.535Z,41.14
2022-08-30T17:34:16.138Z,42.14
2022-08-30T17:37:26.541Z,42.50
2022-08-30T17:40:38.322Z,42.38
2022-08-30T17:43:51.372Z,43.53
2022-08-30T17:47:02.115Z,43.01
2022-08-30T17:50:14.542Z,43.96
2022-08-30T17:53:24.339Z,44.21
2022-08-30T17:56:36.584Z,44.17
2022-08-30T17:59:49.476Z,44.71
2022-08-30T18:03:01.443Z,45.34
2022-08-30T18:06:12.630Z,45.64
2022-08-30T18:09:25.243Z,45.45
2022-08-30T18:12:37.807Z,46.33
2022-08-30T18:15:48.112Z,46.37
2022-08-30T18:19:00.666Z,47.85
2022-08-30T18:22:10.639Z,48.22
2022-08-30T18:25:21.162Z,48.82
2022-08-30T18:28:34.125Z,48.90
2022-08-30T18:31:43.957Z,49.20
2022-08-30T18:34:53.734Z,50.01
2022-08-30T18:38:06.642Z,49.59
2022-08-30T18:41:17.221Z,49.36
2022-08-30T18:44:29.213Z,50.92
2022-08-30T18:47:39.504Z,51.68
2022-08-30T18:50:50.778Z,52.72
2022-08-30T18:54:00.617Z,51.93
2022-08-30T18:57:14.273Z,52.58
2022-08-30T19:00:27.155Z,53.49
2022-08-30T19:03:37.754Z,54.11
2022-08-30T19:06:47.763Z,54.38
2022-08-30T19:09:58.877Z,53.99
2022-08-30T19:13:12.303Z,54.23
2022-08-30T19:16:26.379Z,55.44
2022-08-30T19:19:46.304Z,55.43
2022-08-30T19:23:09.294Z,55.95
2022-08-30T19:26:19.995Z,56.54
2022-08-30T19:29:30.061Z,56.19
2022-08-30T19:32:43.320Z,56.74
2022-08-30T19:35:58.363Z,57.00
2022-08-30T19:39:11.881Z,57.21
2022-08-30T19:45:34.006Z,57.84
2022-08-30T19:48:45.268Z,57.67
2022-08-30T19:51:57.200Z,58.23
2022-08-30T19:55:09.486Z,58.54
2022-08-30T19:58:19.312Z,59.19
2022-08-30T20:01:33.635Z,58.97
2022-08-30T20:04:46.024Z,59.71
2022-08-30T20:24:23.739Z,41.21
